sensor_id;sensor_type;location;lat;lon;timestamp;P1;durP1;ratioP1;P2;durP2;ratioP2
23565;SDS011;22140;48.988;8.544;2023-04-25T00:02:41;9.17;;;2.70;;
23565;SDS011;22140;48.988;8.544;2023-04-25T00:07:42;6.90;;;2.53;;
23565;SDS011;22140;48.988;8.544;2023-04-25T00:12:44;7.45;;;2.65;;
23565;SDS011;22140;48.988;8.544;2023-04-25T00:17:45;6.80;;;2.70;;
23565;SDS011;22140;48.988;8.544;2023-04-25T00:22:47;7.20;;;2.50;;
23565;SDS011;22140;48.988;8.544;2023-04-25T00:27:48;7.67;;;2.20;;
23565;SDS011;22140;48.988;8.544;2023-04-25T00:32:50;6.10;;;2.63;;
23565;SDS011;22140;48.988;8.544;2023-04-25T00:37:51;6.50;;;2.40;;
23565;SDS011;22140;48.988;8.544;2023-04-25T00:42:53;7.17;;;2.80;;
23565;SDS011;22140;48.988;8.544;2023-04-25T00:47:54;6.40;;;2.55;;
23565;SDS011;22140;48.988;8.544;2023-04-25T00:52:55;6.60;;;2.27;;
23565;SDS011;22140;48.988;8.544;2023-04-25T00:57:57;9.00;;;2.53;;
23565;SDS011;22140;48.988;8.544;2023-04-25T01:02:58;5.97;;;2.13;;
23565;SDS011;22140;48.988;8.544;2023-04-25T01:08:01;6.67;;;2.33;;
23565;SDS011;22140;48.988;8.544;2023-04-25T01:13:03;7.20;;;1.92;;
23565;SDS011;22140;48.988;8.544;2023-04-25T01:18:05;7.07;;;2.17;;
23565;SDS011;22140;48.988;8.544;2023-04-25T01:23:06;5.30;;;1.80;;
23565;SDS011;22140;48.988;8.544;2023-04-25T01:28:08;6.45;;;2.08;;
23565;SDS011;22140;48.988;8.544;2023-04-25T01:33:09;6.43;;;2.43;;
23565;SDS011;22140;48.988;8.544;2023-04-25T01:38:11;5.85;;;2.33;;
23565;SDS011;22140;48.988;8.544;2023-04-25T01:43:13;7.77;;;2.07;;
23565;SDS011;22140;48.988;8.544;2023-04-25T01:48:15;6.07;;;2.28;;
23565;SDS011;22140;48.988;8.544;2023-04-25T01:53:16;9.55;;;2.50;;
23565;SDS011;22140;48.988;8.544;2023-04-25T01:58:18;6.23;;;2.30;;
23565;SDS011;22140;48.988;8.544;2023-04-25T02:03:19;6.13;;;2.20;;
23565;SDS011;22140;48.988;8.544;2023-04-25T02:08:21;7.47;;;2.90;;
23565;SDS011;22140;48.988;8.544;2023-04-25T02:13:22;6.65;;;2.15;;
23565;SDS011;22140;48.988;8.544;2023-04-25T02:18:23;7.65;;;2.42;;
23565;SDS011;22140;48.988;8.544;2023-04-25T02:23:25;6.97;;;2.63;;
23565;SDS011;22140;48.988;8.544;2023-04-25T02:28:26;8.05;;;2.70;;
23565;SDS011;22140;48.988;8.544;2023-04-25T02:33:27;6.63;;;2.60;;
23565;SDS011;22140;48.988;8.544;2023-04-25T02:38:29;6.53;;;2.53;;
23565;SDS011;22140;48.988;8.544;2023-04-25T02:43:30;11.40;;;3.10;;
23565;SDS011;22140;48.988;8.544;2023-04-25T02:48:31;9.33;;;2.87;;
23565;SDS011;22140;48.988;8.544;2023-04-25T02:53:33;6.43;;;2.60;;
23565;SDS011;22140;48.988;8.544;2023-04-25T02:58:34;6.97;;;3.00;;
23565;SDS011;22140;48.988;8.544;2023-04-25T03:03:35;9.05;;;2.90;;
23565;SDS011;22140;48.988;8.544;2023-04-25T03:08:37;8.23;;;2.70;;
23565;SDS011;22140;48.988;8.544;2023-04-25T03:13:38;7.53;;;2.60;;
23565;SDS011;22140;48.988;8.544;2023-04-25T03:18:39;7.22;;;2.70;;
23565;SDS011;22140;48.988;8.544;2023-04-25T03:23:41;6.15;;;2.40;;
23565;SDS011;22140;48.988;8.544;2023-04-25T03:28:42;6.90;;;2.43;;
23565;SDS011;22140;48.988;8.544;2023-04-25T03:33:43;6.55;;;2.50;;
23565;SDS011;22140;48.988;8.544;2023-04-25T03:38:45;7.10;;;2.53;;
23565;SDS011;22140;48.988;8.544;2023-04-25T03:43:46;7.75;;;2.80;;
23565;SDS011;22140;48.988;8.544;2023-04-25T03:48:47;7.78;;;2.92;;
23565;SDS011;22140;48.988;8.544;2023-04-25T03:53:49;9.60;;;2.90;;
23565;SDS011;22140;48.988;8.544;2023-04-25T03:58:51;6.97;;;2.80;;
23565;SDS011;22140;48.988;8.544;2023-04-25T04:03:52;6.10;;;2.53;;
23565;SDS011;22140;48.988;8.544;2023-04-25T04:08:54;6.75;;;2.67;;
23565;SDS011;22140;48.988;8.544;2023-04-25T04:13:56;7.78;;;2.90;;
23565;SDS011;22140;48.988;8.544;2023-04-25T04:18:57;7.53;;;2.73;;
23565;SDS011;22140;48.988;8.544;2023-04-25T04:23:59;6.13;;;2.58;;
23565;SDS011;22140;48.988;8.544;2023-04-25T04:29:01;9.43;;;3.37;;
23565;SDS011;22140;48.988;8.544;2023-04-25T04:34:02;8.50;;;2.83;;
23565;SDS011;22140;48.988;8.544;2023-04-25T04:39:05;10.15;;;2.90;;
23565;SDS011;22140;48.988;8.544;2023-04-25T04:44:06;8.50;;;2.90;;
23565;SDS011;22140;48.988;8.544;2023-04-25T04:49:09;7.20;;;2.80;;
23565;SDS011;22140;48.988;8.544;2023-04-25T04:54:10;7.73;;;2.97;;
23565;SDS011;22140;48.988;8.544;2023-04-25T04:59:12;7.25;;;2.63;;
23565;SDS011;22140;48.988;8.544;2023-04-25T05:04:13;6.78;;;2.80;;
23565;SDS011;22140;48.988;8.544;2023-04-25T05:09:14;9.43;;;3.20;;
23565;SDS011;22140;48.988;8.544;2023-04-25T05:14:16;8.02;;;3.20;;
23565;SDS011;22140;48.988;8.544;2023-04-25T05:19:18;7.00;;;2.63;;
23565;SDS011;22140;48.988;8.544;2023-04-25T05:24:19;7.30;;;3.10;;
23565;SDS011;22140;48.988;8.544;2023-04-25T05:29:20;7.43;;;2.70;;
23565;SDS011;22140;48.988;8.544;2023-04-25T05:34:22;6.80;;;2.80;;
23565;SDS011;22140;48.988;8.544;2023-04-25T05:39:23;8.02;;;3.05;;
23565;SDS011;22140;48.988;8.544;2023-04-25T05:44:24;7.50;;;3.00;;
23565;SDS011;22140;48.988;8.544;2023-04-25T05:49:26;7.03;;;2.72;;
23565;SDS011;22140;48.988;8.544;2023-04-25T05:54:27;6.80;;;2.72;;
23565;SDS011;22140;48.988;8.544;2023-04-25T05:59:28;8.27;;;3.47;;
23565;SDS011;22140;48.988;8.544;2023-04-25T06:04:29;7.30;;;2.63;;
23565;SDS011;22140;48.988;8.544;2023-04-25T06:09:31;7.53;;;2.77;;
23565;SDS011;22140;48.988;8.544;2023-04-25T06:14:33;8.05;;;3.35;;
23565;SDS011;22140;48.988;8.544;2023-04-25T06:19:35;8.45;;;3.20;;
23565;SDS011;22140;48.988;8.544;2023-04-25T06:24:36;9.47;;;3.43;;
23565;SDS011;22140;48.988;8.544;2023-04-25T06:29:38;11.55;;;3.42;;
23565;SDS011;22140;48.988;8.544;2023-04-25T06:34:39;7.73;;;2.77;;
23565;SDS011;22140;48.988;8.544;2023-04-25T06:39:40;6.97;;;2.88;;
23565;SDS011;22140;48.988;8.544;2023-04-25T06:44:42;8.45;;;3.33;;
23565;SDS011;22140;48.988;8.544;2023-04-25T06:49:43;8.70;;;3.27;;
23565;SDS011;22140;48.988;8.544;2023-04-25T06:54:44;8.55;;;3.42;;
23565;SDS011;22140;48.988;8.544;2023-04-25T06:59:46;8.77;;;3.33;;
23565;SDS011;22140;48.988;8.544;2023-04-25T07:04:47;8.15;;;3.20;;
23565;SDS011;22140;48.988;8.544;2023-04-25T07:09:49;9.38;;;3.00;;
23565;SDS011;22140;48.988;8.544;2023-04-25T07:14:50;9.33;;;3.80;;
23565;SDS011;22140;48.988;8.544;2023-04-25T07:19:51;8.50;;;3.50;;
23565;SDS011;22140;48.988;8.544;2023-04-25T07:24:53;8.00;;;3.30;;
23565;SDS011;22140;48.988;8.544;2023-04-25T07:29:54;7.45;;;3.15;;
23565;SDS011;22140;48.988;8.544;2023-04-25T07:34:55;8.00;;;3.25;;
23565;SDS011;22140;48.988;8.544;2023-04-25T07:39:57;10.47;;;3.37;;
23565;SDS011;22140;48.988;8.544;2023-04-25T07:44:58;7.40;;;3.10;;
23565;SDS011;22140;48.988;8.544;2023-04-25T07:49:59;9.17;;;3.90;;
23565;SDS011;22140;48.988;8.544;2023-04-25T07:55:01;10.18;;;3.60;;
23565;SDS011;22140;48.988;8.544;2023-04-25T08:00:03;8.38;;;3.22;;
23565;SDS011;22140;48.988;8.544;2023-04-25T08:05:04;9.17;;;3.80;;
23565;SDS011;22140;48.988;8.544;2023-04-25T08:10:06;11.07;;;3.47;;
23565;SDS011;22140;48.988;8.544;2023-04-25T08:15:08;9.40;;;3.90;;
23565;SDS011;22140;48.988;8.544;2023-04-25T08:20:10;10.38;;;4.70;;
23565;SDS011;22140;48.988;8.544;2023-04-25T08:25:12;8.90;;;4.20;;
23565;SDS011;22140;48.988;8.544;2023-04-25T08:30:13;11.73;;;4.70;;
23565;SDS011;22140;48.988;8.544;2023-04-25T08:35:14;11.15;;;5.00;;
23565;SDS011;22140;48.988;8.544;2023-04-25T08:40:17;13.07;;;4.90;;
23565;SDS011;22140;48.988;8.544;2023-04-25T08:45:20;11.95;;;5.68;;
23565;SDS011;22140;48.988;8.544;2023-04-25T08:50:22;12.07;;;6.15;;
23565;SDS011;22140;48.988;8.544;2023-04-25T08:55:23;12.63;;;5.93;;
23565;SDS011;22140;48.988;8.544;2023-04-25T09:00:25;12.88;;;6.07;;
23565;SDS011;22140;48.988;8.544;2023-04-25T09:05:28;11.03;;;6.37;;
23565;SDS011;22140;48.988;8.544;2023-04-25T09:10:29;11.43;;;6.28;;
23565;SDS011;22140;48.988;8.544;2023-04-25T09:15:32;13.43;;;6.90;;
23565;SDS011;22140;48.988;8.544;2023-04-25T09:20:34;12.23;;;6.07;;
23565;SDS011;22140;48.988;8.544;2023-04-25T09:25:46;12.40;;;6.15;;
23565;SDS011;22140;48.988;8.544;2023-04-25T09:30:48;12.53;;;6.13;;
23565;SDS011;22140;48.988;8.544;2023-04-25T09:35:49;11.52;;;4.10;;
23565;SDS011;22140;48.988;8.544;2023-04-25T09:40:56;9.88;;;4.10;;
23565;SDS011;22140;48.988;8.544;2023-04-25T09:45:57;9.83;;;4.40;;
23565;SDS011;22140;48.988;8.544;2023-04-25T09:51:05;9.50;;;4.50;;
23565;SDS011;22140;48.988;8.544;2023-04-25T09:56:07;10.67;;;4.30;;
23565;SDS011;22140;48.988;8.544;2023-04-25T10:01:10;9.07;;;4.55;;
23565;SDS011;22140;48.988;8.544;2023-04-25T10:06:16;9.63;;;4.43;;
23565;SDS011;22140;48.988;8.544;2023-04-25T10:11:19;9.73;;;4.67;;
23565;SDS011;22140;48.988;8.544;2023-04-25T10:16:24;10.90;;;4.60;;
23565;SDS011;22140;48.988;8.544;2023-04-25T10:21:26;10.90;;;4.97;;
23565;SDS011;22140;48.988;8.544;2023-04-25T10:26:28;11.25;;;5.45;;
23565;SDS011;22140;48.988;8.544;2023-04-25T10:31:31;10.88;;;4.80;;
23565;SDS011;22140;48.988;8.544;2023-04-25T10:36:33;56.00;;;18.27;;
23565;SDS011;22140;48.988;8.544;2023-04-25T10:41:52;18.52;;;6.65;;
23565;SDS011;22140;48.988;8.544;2023-04-25T10:46:57;14.27;;;5.83;;
23565;SDS011;22140;48.988;8.544;2023-04-25T10:52:18;13.73;;;5.35;;
23565;SDS011;22140;48.988;8.544;2023-04-25T10:57:36;14.98;;;5.38;;
23565;SDS011;22140;48.988;8.544;2023-04-25T11:02:40;10.83;;;5.57;;
23565;SDS011;22140;48.988;8.544;2023-04-25T11:07:51;13.40;;;5.22;;
23565;SDS011;22140;48.988;8.544;2023-04-25T11:13:07;11.73;;;4.27;;
23565;SDS011;22140;48.988;8.544;2023-04-25T11:18:08;11.80;;;4.30;;
23565;SDS011;22140;48.988;8.544;2023-04-25T11:23:09;9.23;;;4.18;;
23565;SDS011;22140;48.988;8.544;2023-04-25T11:28:11;10.63;;;4.80;;
23565;SDS011;22140;48.988;8.544;2023-04-25T11:33:13;8.43;;;3.83;;
23565;SDS011;22140;48.988;8.544;2023-04-25T11:38:14;10.33;;;5.20;;
23565;SDS011;22140;48.988;8.544;2023-04-25T11:43:16;11.45;;;4.47;;
23565;SDS011;22140;48.988;8.544;2023-04-25T11:48:20;25.88;;;12.75;;
23565;SDS011;22140;48.988;8.544;2023-04-25T11:53:26;13.20;;;5.90;;
23565;SDS011;22140;48.988;8.544;2023-04-25T11:58:30;8.85;;;4.18;;
23565;SDS011;22140;48.988;8.544;2023-04-25T12:03:31;10.23;;;4.77;;
23565;SDS011;22140;48.988;8.544;2023-04-25T12:08:34;11.48;;;4.97;;
23565;SDS011;22140;48.988;8.544;2023-04-25T12:13:35;11.07;;;4.00;;
23565;SDS011;22140;48.988;8.544;2023-04-25T12:18:37;12.27;;;4.30;;
23565;SDS011;22140;48.988;8.544;2023-04-25T12:23:38;13.75;;;5.85;;
23565;SDS011;22140;48.988;8.544;2023-04-25T12:28:44;12.40;;;5.47;;
23565;SDS011;22140;48.988;8.544;2023-04-25T12:33:46;13.52;;;5.38;;
23565;SDS011;22140;48.988;8.544;2023-04-25T12:38:48;15.68;;;6.00;;
23565;SDS011;22140;48.988;8.544;2023-04-25T12:43:51;11.10;;;5.30;;
23565;SDS011;22140;48.988;8.544;2023-04-25T12:48:52;11.60;;;5.38;;
23565;SDS011;22140;48.988;8.544;2023-04-25T12:53:54;13.27;;;5.80;;
23565;SDS011;22140;48.988;8.544;2023-04-25T12:58:55;12.00;;;5.03;;
23565;SDS011;22140;48.988;8.544;2023-04-25T13:03:56;15.93;;;6.65;;
23565;SDS011;22140;48.988;8.544;2023-04-25T13:08:58;16.17;;;7.80;;
23565;SDS011;22140;48.988;8.544;2023-04-25T13:14:00;10.23;;;4.28;;
23565;SDS011;22140;48.988;8.544;2023-04-25T13:19:01;9.13;;;4.37;;
23565;SDS011;22140;48.988;8.544;2023-04-25T13:24:03;15.80;;;4.63;;
23565;SDS011;22140;48.988;8.544;2023-04-25T13:29:04;8.02;;;3.00;;
23565;SDS011;22140;48.988;8.544;2023-04-25T13:34:05;7.23;;;2.67;;
23565;SDS011;22140;48.988;8.544;2023-04-25T13:39:07;8.43;;;3.20;;
23565;SDS011;22140;48.988;8.544;2023-04-25T13:44:08;9.43;;;3.10;;
23565;SDS011;22140;48.988;8.544;2023-04-25T13:49:09;7.38;;;2.83;;
23565;SDS011;22140;48.988;8.544;2023-04-25T13:54:13;9.57;;;3.50;;
23565;SDS011;22140;48.988;8.544;2023-04-25T13:59:14;9.60;;;3.70;;
23565;SDS011;22140;48.988;8.544;2023-04-25T14:04:16;10.32;;;3.60;;
23565;SDS011;22140;48.988;8.544;2023-04-25T14:09:18;8.17;;;3.37;;
23565;SDS011;22140;48.988;8.544;2023-04-25T14:14:21;17.35;;;4.82;;
23565;SDS011;22140;48.988;8.544;2023-04-25T14:19:23;10.50;;;4.05;;
23565;SDS011;22140;48.988;8.544;2023-04-25T14:24:24;13.30;;;3.60;;
23565;SDS011;22140;48.988;8.544;2023-04-25T14:29:26;7.88;;;3.28;;
23565;SDS011;22140;48.988;8.544;2023-04-25T14:34:27;10.53;;;4.10;;
23565;SDS011;22140;48.988;8.544;2023-04-25T14:39:28;32.67;;;5.50;;
23565;SDS011;22140;48.988;8.544;2023-04-25T14:44:30;17.40;;;4.38;;
23565;SDS011;22140;48.988;8.544;2023-04-25T14:49:32;13.97;;;3.80;;
23565;SDS011;22140;48.988;8.544;2023-04-25T14:54:33;12.38;;;4.00;;
23565;SDS011;22140;48.988;8.544;2023-04-25T14:59:34;13.80;;;3.50;;
23565;SDS011;22140;48.988;8.544;2023-04-25T15:04:36;13.85;;;4.40;;
23565;SDS011;22140;48.988;8.544;2023-04-25T15:09:37;12.10;;;3.75;;
23565;SDS011;22140;48.988;8.544;2023-04-25T15:14:38;8.63;;;3.47;;
23565;SDS011;22140;48.988;8.544;2023-04-25T15:19:40;22.35;;;4.18;;
23565;SDS011;22140;48.988;8.544;2023-04-25T15:24:41;25.00;;;3.87;;
23565;SDS011;22140;48.988;8.544;2023-04-25T15:29:42;35.90;;;4.43;;
23565;SDS011;22140;48.988;8.544;2023-04-25T15:34:44;10.35;;;3.38;;
23565;SDS011;22140;48.988;8.544;2023-04-25T15:39:45;38.83;;;5.40;;
23565;SDS011;22140;48.988;8.544;2023-04-25T15:44:46;11.30;;;3.53;;
23565;SDS011;22140;48.988;8.544;2023-04-25T15:49:48;8.40;;;3.17;;
23565;SDS011;22140;48.988;8.544;2023-04-25T15:54:49;12.53;;;3.17;;
23565;SDS011;22140;48.988;8.544;2023-04-25T15:59:50;8.07;;;3.20;;
23565;SDS011;22140;48.988;8.544;2023-04-25T16:04:52;7.87;;;3.27;;
23565;SDS011;22140;48.988;8.544;2023-04-25T16:09:54;8.48;;;3.00;;
23565;SDS011;22140;48.988;8.544;2023-04-25T16:14:55;8.95;;;2.78;;
23565;SDS011;22140;48.988;8.544;2023-04-25T16:19:58;6.03;;;2.40;;
23565;SDS011;22140;48.988;8.544;2023-04-25T16:25:02;10.23;;;2.55;;
23565;SDS011;22140;48.988;8.544;2023-04-25T16:30:04;7.97;;;2.93;;
23565;SDS011;22140;48.988;8.544;2023-04-25T16:35:06;9.85;;;3.80;;
23565;SDS011;22140;48.988;8.544;2023-04-25T16:40:08;10.50;;;3.78;;
23565;SDS011;22140;48.988;8.544;2023-04-25T16:45:10;11.40;;;4.27;;
23565;SDS011;22140;48.988;8.544;2023-04-25T16:50:14;11.27;;;4.13;;
23565;SDS011;22140;48.988;8.544;2023-04-25T16:55:16;13.60;;;5.33;;
23565;SDS011;22140;48.988;8.544;2023-04-25T17:00:18;11.63;;;4.20;;
23565;SDS011;22140;48.988;8.544;2023-04-25T17:05:19;10.07;;;4.55;;
23565;SDS011;22140;48.988;8.544;2023-04-25T17:10:21;9.43;;;4.17;;
23565;SDS011;22140;48.988;8.544;2023-04-25T17:15:22;11.75;;;6.15;;
23565;SDS011;22140;48.988;8.544;2023-04-25T17:20:24;14.00;;;5.13;;
23565;SDS011;22140;48.988;8.544;2023-04-25T17:25:25;13.45;;;6.43;;
23565;SDS011;22140;48.988;8.544;2023-04-25T17:30:26;14.70;;;6.53;;
23565;SDS011;22140;48.988;8.544;2023-04-25T17:35:28;15.27;;;7.43;;
23565;SDS011;22140;48.988;8.544;2023-04-25T17:40:29;13.48;;;5.85;;
23565;SDS011;22140;48.988;8.544;2023-04-25T17:45:31;15.07;;;6.57;;
23565;SDS011;22140;48.988;8.544;2023-04-25T17:50:35;15.82;;;6.75;;
23565;SDS011;22140;48.988;8.544;2023-04-25T17:55:36;13.88;;;6.15;;
23565;SDS011;22140;48.988;8.544;2023-04-25T18:00:38;14.50;;;6.17;;
23565;SDS011;22140;48.988;8.544;2023-04-25T18:05:39;12.43;;;5.18;;
23565;SDS011;22140;48.988;8.544;2023-04-25T18:10:41;11.20;;;5.03;;
23565;SDS011;22140;48.988;8.544;2023-04-25T18:15:42;12.70;;;5.20;;
23565;SDS011;22140;48.988;8.544;2023-04-25T18:20:45;15.25;;;6.35;;
23565;SDS011;22140;48.988;8.544;2023-04-25T18:25:47;15.97;;;5.93;;
23565;SDS011;22140;48.988;8.544;2023-04-25T18:30:52;14.20;;;5.80;;
23565;SDS011;22140;48.988;8.544;2023-04-25T18:35:54;13.30;;;5.57;;
23565;SDS011;22140;48.988;8.544;2023-04-25T18:40:59;10.38;;;4.93;;
23565;SDS011;22140;48.988;8.544;2023-04-25T18:46:21;13.40;;;5.65;;
23565;SDS011;22140;48.988;8.544;2023-04-25T18:51:23;13.37;;;6.20;;
23565;SDS011;22140;48.988;8.544;2023-04-25T18:56:26;16.52;;;6.65;;
23565;SDS011;22140;48.988;8.544;2023-04-25T19:01:27;12.60;;;5.73;;
23565;SDS011;22140;48.988;8.544;2023-04-25T19:06:29;15.27;;;6.22;;
23565;SDS011;22140;48.988;8.544;2023-04-25T19:11:30;13.63;;;5.72;;
23565;SDS011;22140;48.988;8.544;2023-04-25T19:16:32;13.43;;;6.13;;
23565;SDS011;22140;48.988;8.544;2023-04-25T19:21:39;18.55;;;7.90;;
23565;SDS011;22140;48.988;8.544;2023-04-25T19:26:41;28.10;;;10.33;;
23565;SDS011;22140;48.988;8.544;2023-04-25T19:31:43;32.75;;;13.07;;
23565;SDS011;22140;48.988;8.544;2023-04-25T19:36:44;34.65;;;11.43;;
23565;SDS011;22140;48.988;8.544;2023-04-25T19:41:46;12.27;;;5.72;;
23565;SDS011;22140;48.988;8.544;2023-04-25T19:46:47;11.68;;;5.35;;
23565;SDS011;22140;48.988;8.544;2023-04-25T19:51:49;14.73;;;6.47;;
23565;SDS011;22140;48.988;8.544;2023-04-25T19:56:51;12.82;;;5.47;;
23565;SDS011;22140;48.988;8.544;2023-04-25T20:01:53;12.60;;;5.53;;
23565;SDS011;22140;48.988;8.544;2023-04-25T20:06:54;13.87;;;6.10;;
23565;SDS011;22140;48.988;8.544;2023-04-25T20:11:56;19.15;;;6.65;;
23565;SDS011;22140;48.988;8.544;2023-04-25T20:16:57;18.53;;;6.23;;
23565;SDS011;22140;48.988;8.544;2023-04-25T20:21:59;15.45;;;6.18;;
23565;SDS011;22140;48.988;8.544;2023-04-25T20:27:00;16.35;;;7.00;;
23565;SDS011;22140;48.988;8.544;2023-04-25T20:32:03;19.87;;;7.57;;
23565;SDS011;22140;48.988;8.544;2023-04-25T20:37:04;16.10;;;7.75;;
23565;SDS011;22140;48.988;8.544;2023-04-25T20:42:06;21.03;;;11.20;;
23565;SDS011;22140;48.988;8.544;2023-04-25T20:47:10;17.10;;;8.07;;
23565;SDS011;22140;48.988;8.544;2023-04-25T20:52:13;18.58;;;7.20;;
23565;SDS011;22140;48.988;8.544;2023-04-25T20:57:15;14.43;;;6.37;;
23565;SDS011;22140;48.988;8.544;2023-04-25T21:02:17;12.88;;;5.90;;
23565;SDS011;22140;48.988;8.544;2023-04-25T21:07:19;12.90;;;5.20;;
23565;SDS011;22140;48.988;8.544;2023-04-25T21:12:20;13.57;;;6.60;;
23565;SDS011;22140;48.988;8.544;2023-04-25T21:17:22;13.20;;;6.20;;
23565;SDS011;22140;48.988;8.544;2023-04-25T21:22:23;12.67;;;5.77;;
23565;SDS011;22140;48.988;8.544;2023-04-25T21:27:25;13.73;;;6.30;;
23565;SDS011;22140;48.988;8.544;2023-04-25T21:32:27;12.37;;;5.60;;
23565;SDS011;22140;48.988;8.544;2023-04-25T21:37:28;15.57;;;5.63;;
23565;SDS011;22140;48.988;8.544;2023-04-25T21:42:29;12.32;;;5.88;;
23565;SDS011;22140;48.988;8.544;2023-04-25T21:47:31;13.23;;;5.65;;
23565;SDS011;22140;48.988;8.544;2023-04-25T21:52:34;13.38;;;5.80;;
23565;SDS011;22140;48.988;8.544;2023-04-25T21:57:35;14.00;;;5.73;;
23565;SDS011;22140;48.988;8.544;2023-04-25T22:02:37;14.32;;;6.38;;
23565;SDS011;22140;48.988;8.544;2023-04-25T22:07:40;16.67;;;5.60;;
23565;SDS011;22140;48.988;8.544;2023-04-25T22:12:44;12.03;;;5.57;;
23565;SDS011;22140;48.988;8.544;2023-04-25T22:17:45;12.82;;;5.15;;
23565;SDS011;22140;48.988;8.544;2023-04-25T22:22:47;12.53;;;5.13;;
23565;SDS011;22140;48.988;8.544;2023-04-25T22:27:49;19.25;;;6.00;;
23565;SDS011;22140;48.988;8.544;2023-04-25T22:32:51;13.07;;;5.82;;
23565;SDS011;22140;48.988;8.544;2023-04-25T22:37:53;13.80;;;5.73;;
23565;SDS011;22140;48.988;8.544;2023-04-25T22:42:54;13.55;;;6.00;;
23565;SDS011;22140;48.988;8.544;2023-04-25T22:47:55;14.00;;;6.10;;
23565;SDS011;22140;48.988;8.544;2023-04-25T22:52:57;13.10;;;5.60;;
23565;SDS011;22140;48.988;8.544;2023-04-25T22:57:58;14.50;;;5.57;;
23565;SDS011;22140;48.988;8.544;2023-04-25T23:02:59;13.40;;;5.30;;
23565;SDS011;22140;48.988;8.544;2023-04-25T23:08:03;14.60;;;5.68;;
23565;SDS011;22140;48.988;8.544;2023-04-25T23:13:05;12.57;;;5.70;;
23565;SDS011;22140;48.988;8.544;2023-04-25T23:18:06;12.82;;;5.68;;
23565;SDS011;22140;48.988;8.544;2023-04-25T23:23:09;13.98;;;5.93;;
23565;SDS011;22140;48.988;8.544;2023-04-25T23:28:11;13.33;;;5.77;;
23565;SDS011;22140;48.988;8.544;2023-04-25T23:33:12;11.93;;;5.00;;
23565;SDS011;22140;48.988;8.544;2023-04-25T23:38:14;12.63;;;5.57;;
23565;SDS011;22140;48.988;8.544;2023-04-25T23:43:16;15.35;;;5.40;;
23565;SDS011;22140;48.988;8.544;2023-04-25T23:48:21;13.85;;;5.20;;
23565;SDS011;22140;48.988;8.544;2023-04-25T23:53:23;11.40;;;5.10;;
23565;SDS011;22140;48.988;8.544;2023-04-25T23:58:24;13.52;;;5.93;;
